Aviation Digital Data Service (ADDS)

Output produced by METARs form (0814 UTC 20 April 2014)
found at http://www.aviationweather.gov/adds/metars/
 
KESN 200814Z AUTO 00000KT 10SM CLR 08/04 A3035 RMK AO2 T00810040